Floyd, New Mexico
Current Conditions -  °F | °C
As of 12:56 PM on Sunday 21 Dec 2014 (Local Time) from K4MR Reporting Station
Clear Clear  
Wind Chill: 59°   Ceiling: Unl
Heat Index: 59°   Visibility: 10mi
Dew Point: 24°   Wind: 30mph
Humidity: 26%   Direction: 260°W
Pressure: 29.76"   Gusts: 38mph
Location:  34.21°N, 103.58°W
Report Text: K4MR 211956Z AUTO 26026G33KT 10SM CLR 15/M04 A2976 RMK AO2 PK WND 26032/51 SLP053 T01511042
Loading
Personal Weather Stations






























Interactive Weather Map New forecast layout! Learn more

10-Day Weather Forecast

Advertisements
Track Severe Weather on mobile